createdAt,value
2023-03-26T00:02:13.913Z,98722.84
2023-03-26T00:04:43.701Z,98725.88
2023-03-26T00:07:13.267Z,98727.17
2023-03-26T00:09:42.351Z,98726.80
2023-03-26T00:12:11.343Z,98718.95
2023-03-26T00:14:41.361Z,98704.50
2023-03-26T00:17:10.208Z,98697.25
2023-03-26T00:19:39.575Z,98702.94
2023-03-26T00:22:11.578Z,98708.50
2023-03-26T00:24:41.201Z,98718.98
2023-03-26T00:27:10.177Z,98730.79
2023-03-26T00:29:40.382Z,98734.31
2023-03-26T00:32:09.657Z,98731.42
2023-03-26T00:34:41.814Z,98735.49
2023-03-26T00:37:12.972Z,98738.83
2023-03-26T00:39:43.305Z,98740.23
2023-03-26T00:42:15.340Z,98738.02
2023-03-26T00:44:44.497Z,98737.98
2023-03-26T00:47:13.766Z,98738.86
2023-03-26T00:49:43.136Z,98736.56
2023-03-26T00:52:12.917Z,98734.41
2023-03-26T00:54:43.237Z,98729.83
2023-03-26T00:57:20.218Z,98735.77
2023-03-26T00:59:55.198Z,98740.80
2023-03-26T01:02:28.102Z,98737.55
2023-03-26T01:05:03.396Z,98737.01
2023-03-26T01:07:33.092Z,98741.96
2023-03-26T01:10:01.887Z,98738.20
2023-03-26T01:12:32.630Z,98728.23
2023-03-26T01:15:02.733Z,98732.27
2023-03-26T01:17:34.768Z,98723.73
2023-03-26T01:20:33.252Z,98714.67
2023-03-26T01:23:07.930Z,98719.43
2023-03-26T01:25:46.732Z,98717.11
2023-03-26T01:28:18.536Z,98712.56
2023-03-26T01:31:10.556Z,98705.51
2023-03-26T01:33:47.780Z,98707.35
2023-03-26T01:36:26.605Z,98705.44
2023-03-26T01:39:22.138Z,98702.13
2023-03-26T01:42:22.344Z,98696.63
2023-03-26T01:45:06.223Z,98691.98
2023-03-26T01:47:38.444Z,98698.86
2023-03-26T01:50:08.228Z,98703.42
2023-03-26T01:52:37.821Z,98691.52
2023-03-26T01:55:12.158Z,98685.95
2023-03-26T01:57:50.224Z,98679.51
2023-03-26T02:00:31.336Z,98681.45
2023-03-26T02:03:32.997Z,98683.85
2023-03-26T02:06:31.776Z,98680.20
2023-03-26T02:09:09.669Z,98679.07
2023-03-26T02:11:41.170Z,98673.17
2023-03-26T02:14:11.016Z,98672.68
2023-03-26T02:16:40.463Z,98677.27
2023-03-26T02:19:16.289Z,98674.16
2023-03-26T02:21:47.232Z,98681.73
2023-03-26T02:24:16.625Z,98685.70
2023-03-26T02:26:46.311Z,98679.21
2023-03-26T02:29:21.026Z,98669.46
2023-03-26T02:31:50.984Z,98664.31
2023-03-26T02:34:21.046Z,98658.35
2023-03-26T02:36:49.928Z,98650.13
2023-03-26T02:39:18.664Z,98652.37
2023-03-26T02:41:48.062Z,98650.75
2023-03-26T02:44:17.401Z,98640.64
2023-03-26T02:46:46.402Z,98640.02
2023-03-26T02:49:15.314Z,98644.61
2023-03-26T02:51:44.519Z,98641.08
2023-03-26T02:54:13.638Z,98637.08
2023-03-26T02:56:42.885Z,98640.80
2023-03-26T02:59:11.976Z,98643.95
2023-03-26T03:01:43.535Z,98646.15
2023-03-26T03:04:14.352Z,98647.69
2023-03-26T03:06:45.436Z,98645.29
2023-03-26T03:09:14.487Z,98650.85
2023-03-26T03:11:43.686Z,98650.59
2023-03-26T03:14:12.644Z,98648.69
2023-03-26T03:16:41.724Z,98637.42
2023-03-26T03:19:11.724Z,98633.58
2023-03-26T03:21:42.261Z,98634.10
2023-03-26T03:24:14.398Z,98631.45
2023-03-26T03:26:45.982Z,98628.67
2023-03-26T03:29:15.054Z,98637.36
2023-03-26T03:31:43.975Z,98631.86
2023-03-26T03:34:13.197Z,98620.45
2023-03-26T03:36:41.972Z,98623.66
2023-03-26T03:39:10.789Z,98618.39
2023-03-26T03:41:39.724Z,98617.00
2023-03-26T03:44:08.937Z,98630.38
2023-03-26T03:46:38.396Z,98631.55
2023-03-26T03:49:08.457Z,98624.30
2023-03-26T03:51:37.789Z,98619.45
2023-03-26T03:54:07.458Z,98620.35
2023-03-26T03:56:36.524Z,98626.35
2023-03-26T03:59:05.724Z,98629.98
2023-03-26T04:01:34.996Z,98626.46
2023-03-26T04:04:05.081Z,98624.16
2023-03-26T04:06:34.690Z,98621.36
2023-03-26T04:09:03.910Z,98617.95
2023-03-26T04:11:32.961Z,98614.48
2023-03-26T04:14:02.304Z,98614.48
2023-03-26T04:16:31.266Z,98619.39
2023-03-26T04:19:02.739Z,98620.75
2023-03-26T04:21:32.594Z,98617.08
2023-03-26T04:24:02.125Z,98614.87
2023-03-26T04:26:31.432Z,98618.78
2023-03-26T04:29:03.779Z,98630.73
2023-03-26T04:31:34.405Z,98630.31
2023-03-26T04:34:14.647Z,98621.77
2023-03-26T04:36:43.557Z,98621.52
2023-03-26T04:39:13.902Z,98622.64
2023-03-26T04:41:42.997Z,98618.85
2023-03-26T04:44:12.235Z,98619.62
2023-03-26T04:46:44.135Z,98612.88
2023-03-26T04:49:13.591Z,98614.77
2023-03-26T04:51:43.005Z,98618.94
2023-03-26T04:54:15.043Z,98617.41
2023-03-26T04:56:53.446Z,98615.95
2023-03-26T04:59:30.724Z,98604.63
2023-03-26T05:02:00.784Z,98615.09
2023-03-26T05:04:29.941Z,98616.52
2023-03-26T05:06:59.470Z,98610.25
2023-03-26T05:09:28.529Z,98605.38
2023-03-26T05:11:59.096Z,98604.79
2023-03-26T05:14:28.469Z,98612.16
2023-03-26T05:16:57.746Z,98617.80
2023-03-26T05:19:26.826Z,98610.80
2023-03-26T05:21:57.191Z,98612.92
2023-03-26T05:24:27.538Z,98612.35
2023-03-26T05:26:56.662Z,98614.29
2023-03-26T05:29:26.778Z,98613.61
2023-03-26T05:31:55.978Z,98612.80
2023-03-26T05:34:25.436Z,98617.41
2023-03-26T05:36:54.348Z,98620.33
2023-03-26T05:39:26.690Z,98618.06
2023-03-26T05:41:55.902Z,98615.99
2023-03-26T05:44:24.988Z,98616.08
2023-03-26T05:46:54.189Z,98616.11
2023-03-26T05:49:23.612Z,98616.48
2023-03-26T05:51:55.052Z,98612.14
2023-03-26T05:54:24.574Z,98610.49
2023-03-26T05:56:53.833Z,98612.20
2023-03-26T05:59:22.947Z,98618.13
2023-03-26T06:01:52.152Z,98617.77
2023-03-26T06:04:21.738Z,98625.59
2023-03-26T06:06:53.420Z,98618.72
2023-03-26T06:09:23.487Z,98613.84
2023-03-26T06:11:52.720Z,98610.98
2023-03-26T06:14:21.594Z,98612.62
2023-03-26T06:16:50.703Z,98613.94
2023-03-26T06:19:19.798Z,98610.52
2023-03-26T06:21:49.015Z,98607.25
2023-03-26T06:24:20.292Z,98612.02
2023-03-26T06:26:49.624Z,98613.23
2023-03-26T06:29:18.876Z,98613.29
2023-03-26T06:31:47.957Z,98607.45
2023-03-26T06:34:16.970Z,98605.09
2023-03-26T06:36:45.881Z,98607.48
2023-03-26T06:39:16.404Z,98616.81
2023-03-26T06:41:45.512Z,98611.96
2023-03-26T06:44:14.584Z,98603.40
2023-03-26T06:46:44.864Z,98600.35
2023-03-26T06:49:14.338Z,98594.48
2023-03-26T06:51:44.102Z,98586.84
2023-03-26T06:54:13.133Z,98587.36
2023-03-26T06:56:42.344Z,98584.37
2023-03-26T06:59:11.253Z,98585.15
2023-03-26T07:01:40.487Z,98586.81
2023-03-26T07:04:09.523Z,98587.38
2023-03-26T07:06:38.419Z,98585.60
2023-03-26T07:09:07.494Z,98580.30
2023-03-26T07:11:36.712Z,98579.77
2023-03-26T07:14:06.025Z,98578.94
2023-03-26T07:16:35.190Z,98573.80
2023-03-26T07:19:04.351Z,98564.54
2023-03-26T07:21:33.716Z,98557.70
2023-03-26T07:24:03.018Z,98560.55
2023-03-26T07:26:46.212Z,98554.27
2023-03-26T07:29:53.262Z,98549.64
2023-03-26T07:32:48.216Z,98541.50
2023-03-26T07:35:33.739Z,98547.84
2023-03-26T07:38:21.371Z,98541.02
2023-03-26T07:41:18.154Z,98536.98
2023-03-26T07:44:05.437Z,98540.32
2023-03-26T07:46:37.480Z,98540.25
2023-03-26T07:49:07.177Z,98536.40
2023-03-26T07:51:36.756Z,98539.90
2023-03-26T07:54:07.632Z,98541.80
2023-03-26T07:56:58.872Z,98534.41
2023-03-26T07:59:41.596Z,98529.39
2023-03-26T08:02:45.830Z,98525.48
2023-03-26T08:05:27.108Z,98524.48
2023-03-26T08:08:03.388Z,98530.50
2023-03-26T08:10:58.990Z,98528.48
2023-03-26T08:13:34.049Z,98518.33
2023-03-26T08:16:26.420Z,98518.05
2023-03-26T08:19:13.265Z,98515.70
2023-03-26T08:21:51.707Z,98512.36
2023-03-26T08:24:24.454Z,98501.27
2023-03-26T08:26:56.079Z,98494.19
2023-03-26T08:29:52.368Z,98487.24
2023-03-26T08:32:22.965Z,98482.35
2023-03-26T08:34:53.381Z,98479.11
2023-03-26T08:37:22.552Z,98475.91
2023-03-26T08:39:51.986Z,98468.44
2023-03-26T08:42:34.065Z,98466.33
2023-03-26T08:45:36.799Z,98460.47
2023-03-26T08:48:27.587Z,98453.33
2023-03-26T08:51:05.483Z,98456.41
2023-03-26T08:54:13.178Z,98458.95
2023-03-26T08:57:19.875Z,98461.29
2023-03-26T08:59:48.932Z,98457.26
2023-03-26T09:02:32.077Z,98452.92
2023-03-26T09:05:39.011Z,98448.76
2023-03-26T09:08:54.300Z,98448.94
2023-03-26T09:11:26.552Z,98460.42
2023-03-26T09:14:20.694Z,98459.64
2023-03-26T09:17:15.472Z,98461.06
2023-03-26T09:19:44.654Z,98454.31
2023-03-26T09:22:23.014Z,98448.34
2023-03-26T09:25:07.972Z,98447.93
2023-03-26T09:27:48.738Z,98444.60
2023-03-26T09:30:34.460Z,98438.67
2023-03-26T09:33:19.227Z,98432.09
2023-03-26T09:35:55.721Z,98428.02
2023-03-26T09:38:39.699Z,98420.07
2023-03-26T09:41:35.864Z,98416.27
2023-03-26T09:44:20.657Z,98417.94
2023-03-26T09:47:22.628Z,98416.57
2023-03-26T09:50:30.224Z,98415.70
2023-03-26T09:53:24.084Z,98411.79
2023-03-26T09:56:24.098Z,98416.27
2023-03-26T09:59:08.838Z,98419.07
2023-03-26T10:02:06.226Z,98414.35
2023-03-26T10:04:40.921Z,98417.28
2023-03-26T10:07:30.732Z,98414.27
2023-03-26T10:10:27.638Z,98409.74
2023-03-26T10:13:28.859Z,98401.34
2023-03-26T10:16:41.283Z,98397.31
2023-03-26T10:19:48.215Z,98393.02
2023-03-26T10:22:52.632Z,98389.23
2023-03-26T10:25:56.154Z,98388.91
2023-03-26T10:28:50.177Z,98380.60
2023-03-26T10:31:58.179Z,98378.46
2023-03-26T10:34:52.634Z,98374.81
2023-03-26T10:38:00.152Z,98374.98
2023-03-26T10:40:56.748Z,98375.25
2023-03-26T10:44:07.320Z,98367.81
2023-03-26T10:47:02.914Z,98364.09
2023-03-26T10:49:54.113Z,98364.66
2023-03-26T10:52:45.596Z,98362.88
2023-03-26T10:55:37.556Z,98353.94
2023-03-26T10:58:46.054Z,98348.51
2023-03-26T11:01:41.369Z,98337.42
2023-03-26T11:04:19.281Z,98338.52
2023-03-26T11:07:07.435Z,98333.50
2023-03-26T11:10:08.973Z,98331.03
2023-03-26T11:12:45.004Z,98341.45
2023-03-26T11:15:44.537Z,98330.60
2023-03-26T11:18:29.297Z,98323.88
2023-03-26T11:21:19.718Z,98312.88
2023-03-26T11:24:05.640Z,98310.69
2023-03-26T11:26:42.511Z,98305.48
2023-03-26T11:29:31.555Z,98302.31
2023-03-26T11:32:07.225Z,98298.98
2023-03-26T11:35:18.138Z,98292.59
2023-03-26T11:38:33.260Z,98279.96
2023-03-26T11:41:04.324Z,98281.36
2023-03-26T11:43:37.595Z,98269.72
2023-03-26T11:46:15.298Z,98260.77
2023-03-26T11:48:59.937Z,98258.83
2023-03-26T11:51:34.773Z,98260.52
2023-03-26T11:54:06.770Z,98259.64
2023-03-26T11:57:05.293Z,98252.72
2023-03-26T11:59:56.434Z,98251.79
2023-03-26T12:02:40.130Z,98246.88
2023-03-26T12:05:15.907Z,98236.05
2023-03-26T12:07:58.091Z,98224.90
2023-03-26T12:10:43.831Z,98216.55
2023-03-26T12:13:38.736Z,98208.17
2023-03-26T12:16:14.609Z,98211.05
2023-03-26T12:18:45.303Z,98205.66
2023-03-26T12:21:19.822Z,98201.33
2023-03-26T12:23:59.484Z,98200.17
2023-03-26T12:26:41.912Z,98207.62
2023-03-26T12:29:14.420Z,98205.99
2023-03-26T12:32:04.881Z,98197.32
2023-03-26T12:34:39.796Z,98184.50
2023-03-26T12:37:36.956Z,98179.57
2023-03-26T12:40:27.922Z,98173.05
2023-03-26T12:44:54.655Z,98161.64
2023-03-26T12:47:26.501Z,98156.05
2023-03-26T12:48:46.177Z,98164.45
2023-03-26T12:51:45.147Z,98153.59
2023-03-26T12:54:25.213Z,98136.79
2023-03-26T12:57:25.278Z,98130.05
2023-03-26T13:00:22.146Z,98125.66
2023-03-26T13:03:03.848Z,98113.89
2023-03-26T13:05:47.297Z,98111.59
2023-03-26T13:08:51.222Z,98112.23
2023-03-26T13:11:31.819Z,98105.11
2023-03-26T13:14:25.655Z,98096.46
2023-03-26T13:17:33.146Z,98077.08
2023-03-26T13:20:22.116Z,98073.99
2023-03-26T13:23:18.857Z,98061.05
2023-03-26T13:26:09.979Z,98053.75
2023-03-26T13:28:42.996Z,98044.13
2023-03-26T13:31:30.007Z,98035.98
2023-03-26T13:34:05.054Z,98049.65
2023-03-26T13:37:04.817Z,98036.45
2023-03-26T13:40:09.951Z,98035.34
2023-03-26T13:42:47.435Z,98044.08
2023-03-26T13:45:32.213Z,98036.79
2023-03-26T13:48:04.496Z,98045.08
2023-03-26T13:50:43.393Z,98055.05
2023-03-26T13:53:24.969Z,98057.77
2023-03-26T13:55:59.285Z,98055.69
2023-03-26T13:58:36.950Z,98051.52
2023-03-26T14:01:12.892Z,98045.87
2023-03-26T14:03:58.997Z,98052.33
2023-03-26T14:06:47.889Z,98039.18
2023-03-26T14:09:17.254Z,98039.77
2023-03-26T14:11:58.606Z,98032.29
2023-03-26T14:14:39.472Z,98037.76
2023-03-26T14:17:24.424Z,98028.13
2023-03-26T14:20:11.583Z,98018.62
2023-03-26T14:22:56.127Z,98010.33
2023-03-26T14:25:31.762Z,98018.99
2023-03-26T14:28:38.847Z,98007.48
2023-03-26T14:31:29.385Z,98012.54
2023-03-26T14:34:05.335Z,98019.03
2023-03-26T14:37:27.899Z,98014.23
2023-03-26T14:40:17.444Z,98015.88
2023-03-26T14:42:54.499Z,98014.21
2023-03-26T14:45:39.029Z,98022.88
2023-03-26T14:48:27.578Z,98011.61
2023-03-26T14:51:28.824Z,98013.44
2023-03-26T14:54:06.062Z,98009.01
2023-03-26T14:56:43.429Z,98008.75
2023-03-26T14:59:34.170Z,97995.89
2023-03-26T15:02:40.730Z,97998.10
2023-03-26T15:05:41.424Z,97987.20
2023-03-26T15:08:22.831Z,97976.11
2023-03-26T15:11:16.839Z,97973.17
2023-03-26T15:14:18.622Z,97972.23
2023-03-26T15:16:57.134Z,97960.20
2023-03-26T15:19:49.729Z,97958.34
2023-03-26T15:22:51.379Z,97944.79
2023-03-26T15:25:38.965Z,97931.52
2023-03-26T15:28:26.984Z,97929.59
2023-03-26T15:31:22.884Z,97921.79
2023-03-26T15:34:01.014Z,97900.66
2023-03-26T15:36:59.336Z,97906.38
2023-03-26T15:40:08.581Z,97913.34
2023-03-26T15:43:12.050Z,97908.44
2023-03-26T15:46:18.791Z,97903.64
2023-03-26T15:49:17.627Z,97922.89
2023-03-26T15:52:06.558Z,97918.95
2023-03-26T15:54:54.148Z,97912.09
2023-03-26T15:57:39.513Z,97903.98
2023-03-26T16:00:32.252Z,97908.35
2023-03-26T16:03:11.269Z,97905.65
2023-03-26T16:06:11.492Z,97888.35
2023-03-26T16:09:23.506Z,97883.17
2023-03-26T16:12:00.122Z,97882.54
2023-03-26T16:14:47.397Z,97876.53
2023-03-26T16:17:58.198Z,97873.53
2023-03-26T16:20:34.464Z,97855.58
2023-03-26T16:23:06.898Z,97855.80
2023-03-26T16:26:05.858Z,97860.08
2023-03-26T16:28:37.122Z,97858.83
2023-03-26T16:31:37.653Z,97854.23
2023-03-26T16:34:06.149Z,97875.18
2023-03-26T16:36:43.207Z,97882.31
2023-03-26T16:39:39.139Z,97896.92
2023-03-26T16:42:30.640Z,97878.02
2023-03-26T16:45:14.391Z,97862.89
2023-03-26T16:48:05.578Z,97863.70
2023-03-26T16:50:59.448Z,97859.95
2023-03-26T16:53:42.282Z,97855.72
2023-03-26T16:56:28.618Z,97862.16
2023-03-26T16:59:27.180Z,97866.84
2023-03-26T17:02:05.523Z,97851.83
2023-03-26T17:04:37.381Z,97846.52
2023-03-26T17:07:17.137Z,97837.64
2023-03-26T17:10:26.356Z,97820.90
2023-03-26T17:13:08.331Z,97813.39
2023-03-26T17:15:53.879Z,97816.18
2023-03-26T17:18:51.218Z,97832.63
2023-03-26T17:21:46.525Z,97833.34
2023-03-26T17:24:39.494Z,97837.86
2023-03-26T17:27:19.905Z,97837.23
2023-03-26T17:30:08.035Z,97827.70
2023-03-26T17:33:00.613Z,97827.84
2023-03-26T17:35:48.361Z,97810.22
2023-03-26T17:38:17.982Z,97807.18
2023-03-26T17:40:48.381Z,97799.95
2023-03-26T17:43:44.227Z,97799.56
2023-03-26T17:46:31.242Z,97799.38
2023-03-26T17:49:13.460Z,97784.06
2023-03-26T17:51:42.751Z,97789.61
2023-03-26T17:54:28.435Z,97783.41
2023-03-26T17:57:06.625Z,97789.74
2023-03-26T17:59:39.304Z,97788.15
2023-03-26T18:02:16.431Z,97792.36
2023-03-26T18:04:49.561Z,97798.95
2023-03-26T18:07:57.299Z,97810.84
2023-03-26T18:10:46.247Z,97811.63
2023-03-26T18:13:46.061Z,97808.55
2023-03-26T18:16:27.580Z,97818.67
2023-03-26T18:19:03.334Z,97831.46
2023-03-26T18:21:36.476Z,97826.33
2023-03-26T18:24:09.606Z,97814.50
2023-03-26T18:26:55.414Z,97804.77
2023-03-26T18:29:27.725Z,97813.79
2023-03-26T18:32:04.210Z,97807.13
2023-03-26T18:34:34.976Z,97797.91
2023-03-26T18:37:20.224Z,97796.56
2023-03-26T18:40:15.210Z,97763.48
2023-03-26T18:42:49.645Z,97759.59
2023-03-26T18:45:39.125Z,97752.29
2023-03-26T18:48:21.515Z,97760.77
2023-03-26T18:51:01.075Z,97764.23
2023-03-26T18:53:42.618Z,97753.63
2023-03-26T18:56:38.033Z,97740.80
2023-03-26T18:59:29.848Z,97741.11
2023-03-26T19:02:11.953Z,97744.99
2023-03-26T19:04:46.694Z,97756.15
2023-03-26T19:07:24.527Z,97761.23
2023-03-26T19:09:57.213Z,97754.98
2023-03-26T19:12:33.712Z,97748.09
2023-03-26T19:15:09.497Z,97753.25
2023-03-26T19:17:56.685Z,97738.41
2023-03-26T19:20:33.606Z,97735.64
2023-03-26T19:23:03.217Z,97728.36
2023-03-26T19:25:36.432Z,97724.48
2023-03-26T19:28:07.318Z,97715.36
2023-03-26T19:30:42.722Z,97720.04
2023-03-26T19:33:18.885Z,97726.30
2023-03-26T19:36:05.796Z,97717.59
2023-03-26T19:38:45.219Z,97703.53
2023-03-26T19:41:26.969Z,97703.69
2023-03-26T19:44:00.356Z,97701.22
2023-03-26T19:47:48.397Z,97696.56
2023-03-26T19:49:33.589Z,97691.77
2023-03-26T19:52:15.879Z,97692.63
2023-03-26T19:55:07.441Z,97693.98
2023-03-26T19:57:38.669Z,97698.47
2023-03-26T20:00:18.297Z,97695.30
2023-03-26T20:02:47.491Z,97694.02
2023-03-26T20:05:24.088Z,97682.16
2023-03-26T20:07:56.440Z,97682.02
2023-03-26T20:10:25.680Z,97679.71
2023-03-26T20:12:54.932Z,97678.86
2023-03-26T20:15:25.982Z,97677.91
2023-03-26T20:17:55.649Z,97672.91
2023-03-26T20:20:27.813Z,97663.17
2023-03-26T20:22:56.843Z,97654.14
2023-03-26T20:25:34.800Z,97654.13
2023-03-26T20:28:04.375Z,97648.81
2023-03-26T20:30:37.787Z,97644.77
2023-03-26T20:33:15.205Z,97643.49
2023-03-26T20:35:44.153Z,97647.77
2023-03-26T20:38:13.548Z,97643.64
2023-03-26T20:40:45.225Z,97647.45
2023-03-26T20:43:18.796Z,97649.23
2023-03-26T20:45:49.445Z,97651.19
2023-03-26T20:48:18.725Z,97647.73
2023-03-26T20:50:50.762Z,97645.30
2023-03-26T20:53:20.873Z,97642.16
2023-03-26T20:55:52.042Z,97639.48
2023-03-26T20:58:31.722Z,97645.19
2023-03-26T21:01:02.565Z,97651.77
2023-03-26T21:03:32.934Z,97651.60
2023-03-26T21:06:04.408Z,97640.74
2023-03-26T21:08:37.646Z,97624.05
2023-03-26T21:11:26.898Z,97619.73
2023-03-26T21:14:08.410Z,97623.99
2023-03-26T21:16:38.134Z,97628.20
2023-03-26T21:19:07.356Z,97635.81
2023-03-26T21:22:03.516Z,97637.32
2023-03-26T21:24:58.774Z,97629.41
2023-03-26T21:27:59.802Z,97628.52
2023-03-26T21:30:29.276Z,97618.73
2023-03-26T21:32:58.808Z,97612.91
2023-03-26T21:35:28.667Z,97615.59
2023-03-26T21:37:58.128Z,97617.34
2023-03-26T21:40:28.754Z,97628.52
2023-03-26T21:42:58.161Z,97638.04
2023-03-26T21:45:28.237Z,97644.05
2023-03-26T21:47:58.201Z,97644.13
2023-03-26T21:50:27.503Z,97637.48
2023-03-26T21:52:57.506Z,97636.83
2023-03-26T21:55:27.183Z,97627.63
2023-03-26T21:58:06.700Z,97629.59
2023-03-26T22:01:03.123Z,97636.74
2023-03-26T22:04:05.326Z,97641.17
2023-03-26T22:06:46.797Z,97645.96
2023-03-26T22:09:20.673Z,97644.60
2023-03-26T22:11:53.382Z,97645.38
2023-03-26T22:14:22.607Z,97648.02
2023-03-26T22:16:51.866Z,97645.19
2023-03-26T22:19:20.885Z,97646.56
2023-03-26T22:21:51.653Z,97652.27
2023-03-26T22:24:21.562Z,97646.20
2023-03-26T22:26:50.423Z,97642.44
2023-03-26T22:29:19.882Z,97640.79
2023-03-26T22:31:49.360Z,97647.99
2023-03-26T22:34:18.420Z,97646.73
2023-03-26T22:36:48.273Z,97631.30
2023-03-26T22:39:18.796Z,97629.46
2023-03-26T22:41:48.452Z,97636.45
2023-03-26T22:44:20.217Z,97642.23
2023-03-26T22:46:51.876Z,97642.23
2023-03-26T22:49:22.051Z,97630.70
2023-03-26T22:51:51.936Z,97629.66
2023-03-26T22:54:21.663Z,97631.86
2023-03-26T22:56:52.508Z,97627.24
2023-03-26T22:59:21.372Z,97629.83
2023-03-26T23:01:50.942Z,97639.39
2023-03-26T23:04:30.498Z,97642.88
2023-03-26T23:07:01.088Z,97641.43
2023-03-26T23:09:29.852Z,97647.39
2023-03-26T23:11:58.792Z,97642.66
2023-03-26T23:14:29.011Z,97641.15
2023-03-26T23:16:57.785Z,97636.31
2023-03-26T23:19:26.802Z,97640.28
2023-03-26T23:21:55.503Z,97645.97
2023-03-26T23:24:26.806Z,97644.55
2023-03-26T23:26:55.401Z,97653.05
2023-03-26T23:29:24.222Z,97644.98
2023-03-26T23:31:54.926Z,97640.52
2023-03-26T23:34:23.873Z,97635.39
2023-03-26T23:36:52.925Z,97644.44
2023-03-26T23:39:22.153Z,97642.05
2023-03-26T23:41:50.954Z,97639.58
2023-03-26T23:44:20.509Z,97637.11
2023-03-26T23:46:58.279Z,97640.18
2023-03-26T23:49:28.094Z,97644.70
2023-03-26T23:51:56.884Z,97643.51
2023-03-26T23:54:25.998Z,97646.16
2023-03-26T23:56:55.300Z,97646.13
2023-03-26T23:59:24.194Z,97647.35
